Heerenveen, Netherlands
Current Conditions -  °F | °C
As of 4:03 PM on Thursday 30 Oct 2014 (Local Time) from EHLW Reporting Station
Haze Haze  
Wind Chill: 55°   Ceiling: 600
Heat Index: 55°   Visibility: 3mi
Dew Point: 54°   Wind: 9mph
Humidity: 94%   Direction: 160°SSE
Pressure: 30.12"   Gusts: NA
Location:  52.96°N, 5.92°E
Report Text: EHLW 301503Z AUTO 16008KT 5000 BR OVC006 13/12 Q1020 YLO 15007KT 4000 BR BKN005 TEMPO 2500 BR SCT002 OVC004
Loading
Personal Weather Stations






























Interactive Weather Map
Tropical Storm Tracking
New forecast layout! Learn more

10-Day Weather Forecast

Advertisements
Track Severe Weather on mobile